Time;durP1;ratioP1;P1;durP2;ratioP2;P2;SDS_P1;SDS_P2;PMS_P1;PMS_P2;Temp;Humidity;BMP_temperature;BMP_pressure;BME280_temperature;BME280_humidity;BME280_pressure;Samples;Min_cycle;Max_cycle;Signal;HPM_P1;HPM_P2
2023/04/29 00:00:07;;;;;;;34.67;22.17;;;11.60;99.90;;;;;;5069724;28;20077;-80
2023/04/29 00:02:35;;;;;;;31.77;19.23;;;11.50;99.90;;;;;;5072999;27;20055;-78
2023/04/29 00:05:03;;;;;;;31.85;20.35;;;11.10;99.90;;;;;;5093021;28;20043;-77
2023/04/29 00:07:31;;;;;;;34.58;21.98;;;12.80;99.90;;;;;;5091653;28;20036;-76
2023/04/29 00:09:57;;;;;;;33.67;20.95;;;11.90;99.90;;;;;;5105973;28;20028;-76
2023/04/29 00:12:23;;;;;;;34.55;21.35;;;11.20;99.90;;;;;;5106891;27;20598;-77
2023/04/29 00:14:49;;;;;;;32.30;21.52;;;14.00;99.90;;;;;;5080591;28;20063;-80
2023/04/29 00:17:15;;;;;;;34.55;22.00;;;11.10;99.90;;;;;;5074844;28;20100;-78
2023/04/29 00:19:41;;;;;;;40.00;23.23;;;13.10;99.90;;;;;;5093262;28;20051;-78
2023/04/29 00:22:08;;;;;;;39.83;22.85;;;11.50;99.90;;;;;;5102537;28;20352;-76
2023/04/29 00:24:33;;;;;;;39.70;22.23;;;11.50;99.90;;;;;;5082853;28;20043;-76
2023/04/29 00:27:00;;;;;;;34.20;22.70;;;12.60;99.90;;;;;;5052653;28;20064;-78
2023/04/29 00:29:26;;;;;;;37.08;21.95;;;13.80;99.90;;;;;;5064939;28;20040;-80
2023/04/29 00:31:52;;;;;;;34.20;21.25;;;13.30;99.90;;;;;;5078478;28;20036;-78
2023/04/29 00:34:17;;;;;;;36.35;22.05;;;11.50;99.90;;;;;;5064128;28;20048;-77
2023/04/29 00:36:43;;;;;;;32.53;19.60;;;11.00;99.90;;;;;;5081620;28;20519;-77
2023/04/29 00:39:09;;;;;;;31.90;20.13;;;11.80;99.90;;;;;;5060220;28;20105;-79
2023/04/29 00:41:35;;;;;;;33.65;19.58;;;13.70;99.90;;;;;;5067103;28;20051;-78
2023/04/29 00:44:00;;;;;;;35.92;19.77;;;12.00;99.90;;;;;;5088206;28;20067;-76
2023/04/29 00:46:26;;;;;;;28.73;17.92;;;13.50;99.90;;;;;;5050969;28;20074;-78
2023/04/29 00:48:59;;;;;;;33.55;18.73;;;13.80;99.90;;;;;;5083830;28;20112;-78
2023/04/29 00:51:25;;;;;;;32.33;17.75;;;12.90;99.90;;;;;;5043599;28;20040;-79
2023/04/29 00:53:51;;;;;;;28.40;17.50;;;12.10;99.90;;;;;;5068118;28;20089;-76
2023/04/29 00:56:19;;;;;;;31.05;16.88;;;12.60;99.90;;;;;;5052231;28;20036;-77
2023/04/29 00:58:48;;;;;;;30.70;18.33;;;13.20;99.90;;;;;;5057486;28;20055;-76
2023/04/29 01:01:15;;;;;;;26.35;15.32;;;13.70;99.90;;;;;;5052526;28;20042;-76
2023/04/29 01:03:42;;;;;;;28.20;16.25;;;13.70;99.90;;;;;;5055790;28;20074;-77
2023/04/29 01:06:58;;;;;;;31.38;16.00;;;11.00;99.90;;;;;;5087595;28;20040;-78
2023/04/29 01:09:45;;;;;;;26.52;15.52;;;13.60;99.90;;;;;;5060008;28;20040;-77
2023/04/29 01:12:24;;;;;;;23.13;15.43;;;11.50;99.90;;;;;;5101826;27;20063;-79
2023/04/29 01:15:10;;;;;;;24.08;14.35;;;13.10;99.90;;;;;;5084906;28;20040;-78
2023/04/29 01:17:40;;;;;;;25.42;15.90;;;13.40;99.90;;;;;;5079264;28;20079;-76
2023/04/29 01:20:09;;;;;;;28.55;16.70;;;12.00;99.90;;;;;;5071088;28;20404;-77
2023/04/29 01:22:35;;;;;;;25.70;17.58;;;12.30;99.90;;;;;;5087763;28;20051;-79
2023/04/29 01:25:01;;;;;;;27.65;16.38;;;11.70;99.90;;;;;;5067228;28;20078;-76
2023/04/29 01:27:29;;;;;;;27.77;16.42;;;12.50;99.90;;;;;;5051012;28;20095;-76
2023/04/29 01:30:08;;;;;;;28.90;16.27;;;11.30;99.90;;;;;;5069308;28;20457;-76
2023/04/29 01:33:12;;;;;;;32.47;17.58;;;12.70;99.90;;;;;;5069175;28;20043;-77
2023/04/29 01:35:59;;;;;;;31.35;17.80;;;11.00;99.90;;;;;;5045945;28;20062;-78
2023/04/29 01:38:35;;;;;;;30.70;17.88;;;13.40;99.90;;;;;;5069579;28;20036;-76
2023/04/29 01:41:28;;;;;;;31.45;18.30;;;13.00;99.90;;;;;;5066757;28;20434;-77
2023/04/29 01:43:57;;;;;;;30.25;18.98;;;12.10;99.90;;;;;;5064797;28;20048;-77
2023/04/29 01:46:22;;;;;;;25.90;16.83;;;11.20;99.90;;;;;;5085521;28;20364;-81
2023/04/29 01:48:51;;;;;;;28.77;17.10;;;13.30;99.90;;;;;;5086977;28;20038;-80
2023/04/29 01:51:17;;;;;;;29.27;18.13;;;10.90;99.90;;;;;;5069254;28;20047;-76
2023/04/29 01:53:43;;;;;;;27.20;17.85;;;12.30;99.90;;;;;;5065678;28;20044;-78
2023/04/29 01:56:08;;;;;;;27.17;17.17;;;12.30;99.90;;;;;;5088316;28;20043;-80
2023/04/29 01:58:40;;;;;;;30.10;17.75;;;11.40;99.90;;;;;;5087059;28;20051;-79
2023/04/29 02:01:05;;;;;;;28.25;18.13;;;12.50;99.90;;;;;;5070223;28;20042;-78
2023/04/29 02:03:31;;;;;;;30.58;18.10;;;10.60;99.90;;;;;;5086382;28;20119;-79
2023/04/29 02:05:58;;;;;;;29.85;17.42;;;10.60;99.90;;;;;;5070601;28;20043;-76
2023/04/29 02:08:23;;;;;;;29.27;17.80;;;12.50;99.90;;;;;;5077011;28;20458;-80
2023/04/29 02:10:54;;;;;;;25.63;17.73;;;10.60;99.90;;;;;;5074680;28;20429;-78
2023/04/29 02:13:19;;;;;;;28.63;16.98;;;12.00;99.90;;;;;;5083198;28;20044;-78
2023/04/29 02:15:45;;;;;;;29.80;17.00;;;10.90;99.90;;;;;;5078781;28;20036;-77
2023/04/29 02:18:11;;;;;;;32.95;17.48;;;12.00;99.90;;;;;;5060706;28;20110;-77
2023/04/29 02:20:36;;;;;;;26.85;15.88;;;10.20;99.90;;;;;;5084220;28;20040;-77
2023/04/29 02:23:02;;;;;;;27.48;16.95;;;10.70;99.90;;;;;;5074019;28;20052;-78
2023/04/29 02:25:27;;;;;;;29.73;17.23;;;10.40;99.90;;;;;;5057093;28;20126;-77
2023/04/29 02:27:53;;;;;;;28.10;17.70;;;10.90;99.90;;;;;;5086410;28;20051;-78
2023/04/29 02:30:19;;;;;;;29.77;17.08;;;10.40;99.90;;;;;;5080329;28;20127;-81
2023/04/29 02:32:44;;;;;;;35.58;18.67;;;11.80;99.90;;;;;;5124640;27;20039;-78
2023/04/29 02:35:11;;;;;;;30.48;18.48;;;10.20;99.90;;;;;;5111701;28;20086;-77
2023/04/29 02:37:37;;;;;;;25.67;16.80;;;11.50;99.90;;;;;;5109856;28;20142;-78
2023/04/29 02:40:03;;;;;;;29.55;18.52;;;11.40;99.90;;;;;;5059953;28;20043;-79
2023/04/29 02:42:30;;;;;;;30.60;17.70;;;10.00;99.90;;;;;;5111794;28;20075;-79
2023/04/29 02:44:56;;;;;;;32.42;17.98;;;10.40;99.90;;;;;;5094823;27;20641;-79
2023/04/29 02:47:22;;;;;;;36.83;18.92;;;11.50;99.90;;;;;;5078741;28;20106;-78
2023/04/29 02:49:48;;;;;;;26.15;16.98;;;10.10;99.90;;;;;;5101463;28;20126;-79
2023/04/29 02:52:15;;;;;;;29.30;17.08;;;11.80;99.90;;;;;;5107229;27;20036;-78
2023/04/29 02:54:41;;;;;;;28.60;16.15;;;11.70;99.90;;;;;;5107703;28;20043;-77
2023/04/29 02:57:07;;;;;;;29.77;15.98;;;12.40;99.90;;;;;;5076467;28;20458;-77
2023/04/29 02:59:33;;;;;;;29.65;16.77;;;10.30;99.90;;;;;;5105609;28;20050;-79
2023/04/29 03:02:00;;;;;;;35.42;17.80;;;10.30;99.90;;;;;;5088221;28;20031;-77
2023/04/29 03:04:27;;;;;;;36.58;17.05;;;11.40;99.90;;;;;;5085391;28;20051;-78
2023/04/29 03:06:55;;;;;;;30.20;17.20;;;10.40;99.90;;;;;;5090395;28;20086;-77
2023/04/29 03:09:21;;;;;;;30.20;17.30;;;12.60;99.90;;;;;;5110216;28;20153;-78
2023/04/29 03:11:47;;;;;;;30.52;16.50;;;10.60;99.90;;;;;;5068517;28;20039;-76
2023/04/29 03:14:13;;;;;;;26.33;17.00;;;10.90;99.90;;;;;;5107426;28;20092;-76
2023/04/29 03:16:39;;;;;;;29.70;17.00;;;12.40;99.90;;;;;;5085444;28;20043;-77
2023/04/29 03:19:05;;;;;;;29.15;16.23;;;12.50;99.90;;;;;;5080944;28;20047;-76
2023/04/29 03:21:31;;;;;;;29.17;16.48;;;12.40;99.90;;;;;;5095433;27;20388;-76
2023/04/29 03:23:57;;;;;;;29.48;16.80;;;12.00;99.90;;;;;;5110040;28;20047;-79
2023/04/29 03:26:23;;;;;;;25.58;16.00;;;11.10;99.90;;;;;;5090332;28;20055;-77
2023/04/29 03:28:50;;;;;;;29.38;16.55;;;11.30;99.90;;;;;;5090302;28;20455;-78
2023/04/29 03:31:16;;;;;;;24.80;15.43;;;12.80;99.90;;;;;;5112374;27;20050;-77
2023/04/29 03:33:42;;;;;;;26.75;14.75;;;13.10;99.90;;;;;;5090318;28;20032;-77
2023/04/29 03:36:08;;;;;;;26.27;14.95;;;10.70;99.90;;;;;;5120805;27;20050;-78
2023/04/29 03:38:34;;;;;;;29.70;15.20;;;11.20;99.90;;;;;;5093126;28;20139;-82
2023/04/29 03:41:00;;;;;;;22.58;12.75;;;12.00;99.90;;;;;;5093046;28;20459;-77
2023/04/29 03:43:25;;;;;;;27.08;14.15;;;13.20;99.90;;;;;;5091174;28;20031;-80
2023/04/29 03:45:51;;;;;;;20.10;13.05;;;11.30;99.90;;;;;;5110155;28;20479;-78
2023/04/29 03:48:18;;;;;;;22.58;12.77;;;11.10;99.90;;;;;;5105336;28;20031;-78
2023/04/29 03:50:44;;;;;;;22.50;13.82;;;11.00;99.90;;;;;;5089025;28;20104;-78
2023/04/29 03:53:11;;;;;;;24.88;12.60;;;12.70;99.90;;;;;;5087817;28;20131;-78
2023/04/29 03:55:37;;;;;;;24.35;12.57;;;13.10;99.90;;;;;;5119515;27;20054;-76
2023/04/29 03:58:02;;;;;;;24.02;12.52;;;13.20;99.90;;;;;;5089519;28;20036;-79
2023/04/29 04:00:30;;;;;;;24.08;12.60;;;13.10;99.90;;;;;;5097822;28;20031;-81
2023/04/29 04:02:56;;;;;;;21.25;13.25;;;12.10;99.90;;;;;;5090622;28;20039;-75
2023/04/29 04:05:24;;;;;;;21.35;12.95;;;11.90;99.90;;;;;;5092277;28;20554;-77
2023/04/29 04:07:51;;;;;;;21.13;11.40;;;11.60;99.90;;;;;;5091649;28;20726;-78
2023/04/29 04:10:17;;;;;;;21.40;12.57;;;11.40;99.90;;;;;;5104859;27;20115;-77
2023/04/29 04:12:43;;;;;;;20.02;12.85;;;13.10;99.90;;;;;;5089756;28;20429;-78
2023/04/29 04:15:09;;;;;;;20.15;13.32;;;11.00;99.90;;;;;;5082412;28;20043;-77
2023/04/29 04:17:35;;;;;;;21.15;12.23;;;11.30;99.90;;;;;;5101051;27;20040;-78
2023/04/29 04:20:01;;;;;;;27.58;13.70;;;13.20;99.90;;;;;;5089726;28;20054;-77
2023/04/29 04:22:26;;;;;;;22.27;13.50;;;11.00;99.90;;;;;;5089874;28;20796;-75
2023/04/29 04:24:55;;;;;;;24.80;13.20;;;11.90;99.90;;;;;;5087867;28;20070;-77
2023/04/29 04:27:21;;;;;;;24.27;13.68;;;12.40;99.90;;;;;;5091561;28;20499;-75
2023/04/29 04:29:46;;;;;;;18.73;13.02;;;11.60;99.90;;;;;;5073317;28;20119;-78
2023/04/29 04:32:12;;;;;;;22.80;13.48;;;12.30;99.90;;;;;;5070199;28;20047;-75
2023/04/29 04:34:40;;;;;;;23.50;14.32;;;11.80;99.90;;;;;;5096911;27;20031;-74
2023/04/29 04:37:07;;;;;;;20.65;13.70;;;13.00;99.90;;;;;;5084368;28;20028;-78
2023/04/29 04:39:32;;;;;;;22.40;13.55;;;12.30;99.90;;;;;;5055210;28;20035;-76
2023/04/29 04:41:58;;;;;;;26.02;13.32;;;12.70;99.90;;;;;;5075215;28;20066;-76
2023/04/29 04:44:24;;;;;;;19.23;13.25;;;12.60;99.90;;;;;;5089687;28;20070;-80
2023/04/29 04:46:53;;;;;;;26.27;13.23;;;12.80;99.90;;;;;;5103115;28;20092;-77
2023/04/29 04:49:18;;;;;;;28.85;12.88;;;12.40;99.90;;;;;;5103014;27;20043;-79
2023/04/29 04:51:44;;;;;;;24.85;14.15;;;12.50;99.90;;;;;;5095273;28;20035;-75
2023/04/29 04:54:11;;;;;;;23.20;13.48;;;11.30;99.90;;;;;;5054627;28;20746;-76
2023/04/29 04:56:36;;;;;;;25.80;14.23;;;13.00;99.90;;;;;;5055453;28;20646;-79
2023/04/29 04:59:03;;;;;;;22.50;13.90;;;12.40;99.90;;;;;;5089354;28;20071;-76
2023/04/29 05:01:28;;;;;;;23.27;13.90;;;12.20;99.90;;;;;;5074811;28;20036;-79
2023/04/29 05:03:54;;;;;;;24.33;14.57;;;11.10;99.90;;;;;;5083753;28;20066;-77
2023/04/29 05:06:20;;;;;;;19.65;12.70;;;13.10;99.90;;;;;;5071205;28;20572;-77
2023/04/29 05:08:46;;;;;;;20.10;13.48;;;11.10;99.90;;;;;;5085623;28;20700;-80
2023/04/29 05:11:19;;;;;;;19.00;12.10;;;12.20;99.90;;;;;;5087163;28;20035;-76
2023/04/29 05:13:44;;;;;;;20.85;13.38;;;11.50;99.90;;;;;;5073179;28;20376;-79
2023/04/29 05:16:10;;;;;;;22.27;13.00;;;11.90;99.90;;;;;;5085482;28;20039;-75
2023/04/29 05:18:36;;;;;;;22.60;12.75;;;12.60;99.90;;;;;;5104725;27;20605;-76
2023/04/29 05:21:02;;;;;;;19.33;11.57;;;11.80;99.90;;;;;;5068197;28;20071;-79
2023/04/29 05:23:28;;;;;;;23.60;14.15;;;13.00;99.90;;;;;;5117911;27;20043;-77
2023/04/29 05:25:54;;;;;;;20.83;13.20;;;12.90;99.90;;;;;;5084372;28;20051;-76
2023/04/29 05:28:19;;;;;;;18.52;11.55;;;12.20;99.90;;;;;;5054210;28;20046;-80
2023/04/29 05:30:46;;;;;;;20.70;13.02;;;12.80;99.90;;;;;;5071855;28;20040;-77
2023/04/29 05:33:12;;;;;;;20.27;12.55;;;13.10;99.90;;;;;;5073507;28;20031;-76
2023/04/29 05:35:37;;;;;;;21.20;12.40;;;11.70;99.90;;;;;;5086882;28;20465;-78
2023/04/29 05:38:03;;;;;;;19.35;11.52;;;11.60;99.90;;;;;;5103629;27;20411;-76
2023/04/29 05:40:29;;;;;;;20.02;11.48;;;11.40;99.90;;;;;;5072606;28;20039;-79
2023/04/29 05:42:55;;;;;;;16.98;10.43;;;13.10;99.90;;;;;;5066150;28;20393;-77
2023/04/29 05:45:20;;;;;;;15.23;9.70;;;13.00;99.90;;;;;;5073716;28;20461;-82
2023/04/29 05:47:46;;;;;;;20.92;10.80;;;11.70;99.90;;;;;;5087531;28;20047;-76
2023/04/29 05:50:12;;;;;;;15.48;10.50;;;12.70;99.90;;;;;;5083408;28;20040;-80
2023/04/29 05:52:38;;;;;;;15.65;9.20;;;13.10;99.90;;;;;;5109534;28;20089;-78
2023/04/29 05:55:04;;;;;;;16.63;10.13;;;11.70;99.90;;;;;;5070640;28;20044;-78
2023/04/29 05:57:29;;;;;;;17.27;10.02;;;12.10;99.90;;;;;;5086677;28;20042;-76
2023/04/29 05:59:56;;;;;;;15.55;9.52;;;12.20;99.90;;;;;;5104000;28;20499;-78
2023/04/29 06:02:22;;;;;;;18.10;9.55;;;11.80;99.90;;;;;;5075398;28;20052;-79
2023/04/29 06:04:48;;;;;;;16.02;9.80;;;12.40;99.90;;;;;;5092394;28;20465;-76
2023/04/29 06:07:13;;;;;;;11.48;8.77;;;12.90;99.90;;;;;;5091710;28;20071;-80
2023/04/29 06:09:40;;;;;;;15.15;9.65;;;12.70;99.90;;;;;;5086441;28;20051;-78
2023/04/29 06:12:05;;;;;;;17.52;10.13;;;12.80;99.90;;;;;;5102283;28;20040;-79
2023/04/29 06:14:31;;;;;;;12.02;8.23;;;13.10;99.90;;;;;;5091280;28;20114;-80
2023/04/29 06:16:57;;;;;;;12.75;8.48;;;13.20;99.90;;;;;;5072835;28;20035;-76
2023/04/29 06:19:24;;;;;;;16.00;9.20;;;12.00;99.90;;;;;;5071840;28;20040;-78
2023/04/29 06:21:50;;;;;;;14.90;8.88;;;13.20;99.90;;;;;;5053648;28;20071;-78
2023/04/29 06:24:16;;;;;;;16.00;9.27;;;12.50;99.90;;;;;;5053703;28;20048;-77
2023/04/29 06:26:42;;;;;;;12.82;8.40;;;13.00;99.90;;;;;;5085470;28;20059;-80
2023/04/29 06:29:08;;;;;;;11.52;7.82;;;12.40;99.90;;;;;;5081059;28;20039;-78
2023/04/29 06:31:34;;;;;;;13.10;8.23;;;12.40;99.90;;;;;;5070297;28;20104;-80
2023/04/29 06:33:59;;;;;;;12.73;7.53;;;13.50;99.90;;;;;;5072155;28;20055;-77
2023/04/29 06:36:27;;;;;;;12.73;7.30;;;12.80;99.90;;;;;;5087365;28;20523;-76
2023/04/29 06:38:52;;;;;;;12.55;7.15;;;12.80;99.90;;;;;;5104227;28;20044;-76
2023/04/29 06:41:18;;;;;;;9.88;7.18;;;12.90;99.90;;;;;;5114036;28;20043;-80
2023/04/29 06:43:44;;;;;;;14.15;8.15;;;13.80;99.90;;;;;;5085814;28;20523;-78
2023/04/29 06:46:10;;;;;;;10.60;7.80;;;13.90;99.90;;;;;;5099233;28;20051;-78
2023/04/29 06:48:36;;;;;;;15.10;8.05;;;13.80;99.90;;;;;;5100851;28;20036;-77
2023/04/29 06:51:02;;;;;;;10.13;7.80;;;13.50;99.90;;;;;;5072171;28;20584;-79
2023/04/29 06:53:28;;;;;;;11.20;7.13;;;13.40;99.90;;;;;;5071452;28;20039;-79
2023/04/29 06:55:54;;;;;;;10.88;7.63;;;14.10;99.90;;;;;;5071613;28;20040;-78
2023/04/29 06:58:20;;;;;;;11.18;7.88;;;13.50;99.90;;;;;;5096324;28;20116;-78
2023/04/29 07:00:47;;;;;;;10.15;7.28;;;13.40;99.90;;;;;;5088250;28;20054;-80
2023/04/29 07:03:13;;;;;;;10.23;7.35;;;14.00;99.90;;;;;;5077544;28;20032;-79
2023/04/29 07:05:40;;;;;;;11.50;7.43;;;13.90;99.90;;;;;;5083586;28;20043;-77
2023/04/29 07:08:07;;;;;;;10.30;7.65;;;14.20;99.90;;;;;;5105661;27;20034;-77
2023/04/29 07:10:33;;;;;;;10.98;7.55;;;14.40;99.90;;;;;;5094466;28;20445;-78
2023/04/29 07:12:59;;;;;;;11.40;7.88;;;14.10;99.90;;;;;;5088759;28;20036;-77
2023/04/29 07:15:29;;;;;;;12.80;7.70;;;13.80;99.90;;;;;;5062679;28;20087;-76
2023/04/29 07:17:55;;;;;;;14.30;8.50;;;14.00;99.90;;;;;;5069192;28;20392;-76
2023/04/29 07:20:21;;;;;;;11.20;7.97;;;14.50;99.90;;;;;;5127977;27;20039;-78
2023/04/29 07:22:47;;;;;;;12.90;8.10;;;14.20;99.90;;;;;;5087792;28;20424;-78
2023/04/29 07:25:13;;;;;;;12.82;8.20;;;14.50;99.90;;;;;;5097452;28;20126;-78
2023/04/29 07:27:39;;;;;;;12.38;8.68;;;14.30;99.90;;;;;;5070516;27;20385;-81
2023/04/29 07:30:05;;;;;;;12.32;8.00;;;14.40;99.90;;;;;;5091666;28;20035;-79
2023/04/29 07:32:31;;;;;;;10.70;7.18;;;14.30;99.90;;;;;;5074683;28;20035;-78
2023/04/29 07:34:58;;;;;;;13.70;7.93;;;14.40;99.90;;;;;;5086518;27;20341;-80
2023/04/29 07:37:24;;;;;;;13.80;8.35;;;14.50;99.90;;;;;;5086715;28;20039;-79
2023/04/29 07:39:50;;;;;;;11.52;8.18;;;14.70;99.90;;;;;;5071398;28;20043;-79
2023/04/29 07:42:16;;;;;;;12.55;7.82;;;14.50;99.90;;;;;;5084815;28;20040;-79
2023/04/29 07:44:44;;;;;;;10.15;7.13;;;14.80;99.90;;;;;;5060465;28;20426;-79
2023/04/29 07:47:11;;;;;;;10.75;6.53;;;14.60;99.90;;;;;;5092232;28;20031;-79
2023/04/29 07:49:37;;;;;;;12.10;7.28;;;14.70;99.90;;;;;;5075073;28;20057;-78
2023/04/29 07:52:08;;;;;;;10.70;7.13;;;14.80;99.90;;;;;;5060204;28;20096;-77
2023/04/29 07:54:37;;;;;;;10.50;7.03;;;14.60;99.90;;;;;;5108435;28;20050;-79
2023/04/29 07:57:03;;;;;;;9.63;6.65;;;15.10;99.90;;;;;;5089995;28;20368;-76
2023/04/29 07:59:30;;;;;;;11.00;6.85;;;14.60;99.90;;;;;;5107896;27;20088;-80
2023/04/29 08:01:56;;;;;;;9.95;6.45;;;15.00;99.90;;;;;;5090459;28;20047;-78
2023/04/29 08:04:22;;;;;;;8.20;6.35;;;14.70;99.90;;;;;;5071767;28;20115;-77
2023/04/29 08:06:48;;;;;;;9.27;6.45;;;14.70;99.90;;;;;;5085588;28;20158;-77
2023/04/29 08:09:15;;;;;;;10.07;6.85;;;15.40;99.90;;;;;;5102109;28;20047;-77
2023/04/29 08:11:42;;;;;;;9.40;6.18;;;15.00;99.90;;;;;;5073302;28;20051;-77
2023/04/29 08:14:07;;;;;;;9.07;6.28;;;15.50;99.90;;;;;;5075968;28;20039;-77
2023/04/29 08:16:33;;;;;;;10.15;6.10;;;15.20;99.90;;;;;;5085725;28;20498;-76
2023/04/29 08:18:59;;;;;;;10.75;6.63;;;15.40;99.90;;;;;;5054938;28;20086;-77
2023/04/29 08:21:26;;;;;;;10.57;5.75;;;15.00;99.90;;;;;;5088573;28;20491;-77
2023/04/29 08:23:52;;;;;;;9.85;6.13;;;15.30;99.90;;;;;;5069317;28;20048;-78
2023/04/29 08:26:18;;;;;;;8.57;5.75;;;14.80;99.90;;;;;;5090042;28;20059;-77
2023/04/29 08:28:44;;;;;;;10.15;5.57;;;15.00;99.90;;;;;;5103316;28;20039;-78
2023/04/29 08:31:19;;;;;;;9.73;6.28;;;15.00;99.90;;;;;;5074563;28;20372;-76
2023/04/29 08:33:45;;;;;;;9.55;6.97;;;15.30;99.90;;;;;;5086679;28;20043;-77
2023/04/29 08:36:11;;;;;;;10.20;6.28;;;15.10;99.90;;;;;;5076998;28;20058;-79
2023/04/29 08:38:37;;;;;;;7.85;5.60;;;15.40;99.90;;;;;;5104984;27;20133;-78
2023/04/29 08:41:02;;;;;;;11.60;6.35;;;15.70;99.90;;;;;;5080414;28;20135;-77
2023/04/29 08:43:29;;;;;;;11.50;6.57;;;15.80;99.90;;;;;;5068165;28;20060;-78
2023/04/29 08:45:57;;;;;;;8.15;6.18;;;16.10;99.90;;;;;;5102454;28;20050;-78
2023/04/29 08:48:24;;;;;;;11.50;6.65;;;15.80;99.90;;;;;;5087789;28;20475;-78
2023/04/29 08:50:50;;;;;;;8.82;5.75;;;15.40;99.90;;;;;;5081000;27;20614;-81
2023/04/29 08:53:16;;;;;;;10.52;6.60;;;15.70;99.90;;;;;;5055256;28;20043;-77
2023/04/29 08:55:44;;;;;;;14.07;6.88;;;15.80;99.90;;;;;;5084058;27;20142;-76
2023/04/29 08:58:11;;;;;;;8.82;5.88;;;15.90;99.90;;;;;;5088493;27;20039;-80
2023/04/29 09:00:39;;;;;;;10.77;6.15;;;15.80;99.90;;;;;;5100662;27;20131;-77
2023/04/29 09:03:30;;;;;;;9.57;6.15;;;16.20;99.90;;;;;;5104431;28;20039;-80
2023/04/29 09:06:00;;;;;;;8.20;5.15;;;15.90;99.90;;;;;;5090895;28;20082;-77
2023/04/29 09:08:26;;;;;;;8.77;5.97;;;16.10;99.90;;;;;;5108443;28;20032;-79
2023/04/29 09:10:53;;;;;;;9.30;5.95;;;15.80;99.90;;;;;;5100529;28;20162;-77
2023/04/29 09:13:26;;;;;;;8.95;5.65;;;15.80;99.90;;;;;;5085899;28;20053;-76
2023/04/29 09:15:52;;;;;;;8.43;5.13;;;16.10;99.90;;;;;;5072752;28;20115;-77
2023/04/29 09:18:44;;;;;;;8.07;5.38;;;16.20;99.90;;;;;;5090011;28;20695;-76
2023/04/29 09:21:15;;;;;;;8.40;4.57;;;16.00;99.90;;;;;;5097500;28;20046;-80
2023/04/29 09:23:42;;;;;;;14.13;5.85;;;16.50;99.90;;;;;;5123956;27;20058;-78
2023/04/29 09:26:08;;;;;;;7.18;4.65;;;16.30;99.90;;;;;;5073059;28;20120;-74
2023/04/29 09:28:33;;;;;;;8.02;4.93;;;16.40;99.90;;;;;;5073143;28;20127;-76
2023/04/29 09:31:05;;;;;;;6.68;4.28;;;16.50;99.90;;;;;;5103849;28;20047;-75
2023/04/29 09:33:31;;;;;;;6.50;4.85;;;16.30;99.90;;;;;;5074081;28;20067;-75
2023/04/29 09:35:57;;;;;;;8.88;4.53;;;16.50;99.90;;;;;;5092287;28;20048;-76
2023/04/29 09:38:22;;;;;;;8.50;4.68;;;16.50;99.90;;;;;;5086693;28;20051;-76
2023/04/29 09:40:50;;;;;;;9.63;4.70;;;16.60;99.90;;;;;;5099051;28;20091;-79
2023/04/29 09:43:17;;;;;;;6.57;3.90;;;16.80;99.90;;;;;;5067103;28;20059;-77
2023/04/29 09:45:46;;;;;;;5.38;4.13;;;16.90;99.90;;;;;;5078736;28;20114;-76
2023/04/29 09:48:13;;;;;;;6.05;4.32;;;17.00;99.90;;;;;;5086279;28;20115;-81
2023/04/29 09:50:41;;;;;;;6.70;4.60;;;17.10;99.90;;;;;;5081069;28;20047;-77
2023/04/29 09:53:09;;;;;;;8.18;5.38;;;17.30;99.90;;;;;;5074911;28;20035;-77
2023/04/29 09:55:53;;;;;;;7.78;4.78;;;17.40;99.90;;;;;;5089292;28;20038;-78
2023/04/29 09:58:32;;;;;;;5.97;5.17;;;17.40;99.90;;;;;;5074619;28;20502;-79
2023/04/29 10:01:00;;;;;;;9.93;5.10;;;17.30;99.90;;;;;;5071720;28;20718;-77
2023/04/29 10:03:31;;;;;;;9.07;5.20;;;17.50;99.90;;;;;;5070089;28;20074;-76
2023/04/29 10:05:57;;;;;;;8.02;6.03;;;17.40;99.90;;;;;;5063937;28;20046;-78
2023/04/29 10:08:24;;;;;;;11.68;4.60;;;17.90;99.90;;;;;;5072667;28;20034;-79
2023/04/29 10:10:56;;;;;;;7.38;5.00;;;17.80;99.90;;;;;;5085948;28;20076;-77
2023/04/29 10:13:25;;;;;;;4.95;3.72;;;17.80;99.90;;;;;;5096057;28;20039;-80
2023/04/29 10:16:00;;;;;;;6.32;4.00;;;17.70;99.90;;;;;;5103027;28;20096;-78
2023/04/29 10:18:36;;;;;;;5.80;4.30;;;17.70;99.90;;;;;;5090310;28;20527;-76
2023/04/29 10:21:04;;;;;;;5.55;4.35;;;17.70;99.90;;;;;;5072553;28;20430;-79
2023/04/29 10:23:30;;;;;;;7.93;4.70;;;17.70;99.90;;;;;;5066408;28;20055;-77
2023/04/29 10:25:58;;;;;;;9.13;5.25;;;17.80;99.90;;;;;;5066271;28;20047;-76
2023/04/29 10:28:26;;;;;;;7.88;5.28;;;17.50;99.90;;;;;;5112944;27;20665;-77
2023/04/29 10:30:54;;;;;;;8.57;4.90;;;17.80;99.90;;;;;;5061550;28;20047;-76
2023/04/29 10:33:22;;;;;;;7.65;5.22;;;17.50;99.90;;;;;;5101700;28;20059;-76
2023/04/29 10:35:49;;;;;;;7.55;5.20;;;17.90;99.90;;;;;;5086977;28;20037;-77
2023/04/29 10:38:39;;;;;;;7.97;4.95;;;17.80;99.90;;;;;;5098772;27;20126;-77
2023/04/29 10:41:13;;;;;;;8.43;5.38;;;17.80;99.90;;;;;;5078615;28;20625;-79
2023/04/29 10:43:39;;;;;;;7.38;4.10;;;17.70;99.90;;;;;;5079214;27;20424;-79
2023/04/29 10:46:19;;;;;;;6.30;4.15;;;17.90;99.90;;;;;;5071226;28;20133;-78
2023/04/29 10:49:11;;;;;;;4.80;3.05;;;18.10;81.40;;;;;;5092243;28;20036;-78
2023/04/29 10:51:44;;;;;;;6.22;3.45;;;17.90;25.60;;;;;;5074189;28;20480;-77
2023/04/29 10:54:15;;;;;;;4.32;3.10;;;17.70;27.20;;;;;;5080910;28;20044;-79
2023/04/29 10:56:54;;;;;;;4.43;2.38;;;17.90;34.70;;;;;;5063753;28;20440;-79
2023/04/29 10:59:35;;;;;;;5.38;2.58;;;18.00;20.80;;;;;;5090023;28;20078;-79
2023/04/29 11:02:01;;;;;;;4.75;2.30;;;17.90;1.00;;;;;;5108075;28;20051;-79
2023/04/29 11:04:27;;;;;;;3.10;2.40;;;17.90;25.30;;;;;;5076141;28;20403;-80
2023/04/29 11:06:57;;;;;;;3.10;2.25;;;18.20;27.80;;;;;;5086144;28;20075;-80
2023/04/29 11:09:24;;;;;;;4.45;2.53;;;17.90;1.40;;;;;;5076149;27;20545;-82
2023/04/29 11:12:04;;;;;;;3.15;1.75;;;18.00;1.00;;;;;;5091048;28;20075;-80
2023/04/29 11:14:41;;;;;;;2.88;1.80;;;18.10;1.00;;;;;;5091043;28;20047;-81
2023/04/29 11:17:16;;;;;;;3.53;1.90;;;17.90;1.00;;;;;;5073171;28;20039;-78
2023/04/29 11:19:45;;;;;;;3.72;1.75;;;17.90;1.00;;;;;;5093149;27;20040;-83
2023/04/29 11:22:25;;;;;;;3.58;1.85;;;17.70;1.00;;;;;;5070671;28;20432;-80
2023/04/29 11:24:56;;;;;;;2.30;1.67;;;17.70;1.00;;;;;;5093087;28;20096;-79
2023/04/29 11:27:28;;;;;;;3.65;1.92;;;17.80;1.00;;;;;;5088187;28;20056;-81
2023/04/29 11:29:57;;;;;;;4.57;2.08;;;18.00;1.00;;;;;;5123553;27;20032;-79
2023/04/29 11:32:27;;;;;;;3.63;2.33;;;18.00;1.00;;;;;;5050934;28;20039;-79
2023/04/29 11:34:52;;;;;;;5.10;2.35;;;17.70;1.00;;;;;;5078806;27;20075;-79
2023/04/29 11:37:25;;;;;;;3.20;2.10;;;17.40;1.00;;;;;;5097275;27;20122;-80
2023/04/29 11:40:00;;;;;;;2.53;1.90;;;17.90;1.00;;;;;;5078309;27;20043;-80
2023/04/29 11:42:26;;;;;;;;;;;17.70;1.00;;;;;;5076356;28;20116;-79
2023/04/29 11:44:53;;;;;;;3.17;2.10;;;17.80;1.00;;;;;;5093665;28;20385;-81
2023/04/29 11:47:20;;;;;;;4.05;2.42;;;17.80;1.00;;;;;;5090367;28;20040;-81
2023/04/29 11:49:46;;;;;;;2.92;2.03;;;17.80;5.30;;;;;;5074449;28;20040;-80
2023/04/29 11:52:12;;;;;;;4.15;2.28;;;18.00;2.90;;;;;;5056697;28;20046;-84
2023/04/29 11:54:40;;;;;;;3.63;2.30;;;17.70;3.30;;;;;;5093120;28;20050;-83
2023/04/29 11:57:06;;;;;;;2.55;1.55;;;17.80;4.50;;;;;;5093622;28;20035;-83
2023/04/29 11:59:45;;;;;;;4.20;2.20;;;17.90;11.90;;;;;;5063650;28;20407;-78
2023/04/29 12:02:12;;;;;;;3.53;2.10;;;17.50;1.00;;;;;;5056298;28;20032;-79
2023/04/29 12:04:45;;;;;;;3.40;2.40;;;18.10;1.00;;;;;;5095737;28;20043;-79
2023/04/29 12:07:18;;;;;;;2.42;1.90;;;17.80;2.90;;;;;;5086263;28;20071;-82
2023/04/29 12:09:45;;;;;;;3.67;2.40;;;17.80;6.80;;;;;;5076639;28;20039;-83
2023/04/29 12:12:12;;;;;;;3.05;2.20;;;17.50;11.60;;;;;;5076649;27;20044;-83
2023/04/29 12:14:40;;;;;;;3.45;2.28;;;17.90;23.00;;;;;;5089617;28;20039;-83
2023/04/29 12:17:07;;;;;;;4.18;2.22;;;17.60;1.00;;;;;;5090091;28;20043;-81
2023/04/29 12:19:33;;;;;;;3.53;2.10;;;17.70;1.00;;;;;;5109103;28;20498;-82
2023/04/29 12:22:01;;;;;;;2.72;2.10;;;17.30;1.00;;;;;;5090612;28;20039;-78
2023/04/29 12:24:27;;;;;;;3.80;1.90;;;17.50;1.00;;;;;;5085328;28;20043;-79
2023/04/29 12:26:54;;;;;;;4.07;1.80;;;17.50;1.00;;;;;;5089806;28;20051;-79
2023/04/29 12:29:22;;;;;;;4.78;2.40;;;17.50;1.00;;;;;;5108191;28;20082;-81
2023/04/29 12:31:48;;;;;;;4.22;1.98;;;17.60;1.00;;;;;;5077208;28;20103;-80
2023/04/29 12:34:14;;;;;;;3.15;1.60;;;17.40;1.00;;;;;;5088359;27;20047;-78
2023/04/29 12:36:43;;;;;;;3.72;1.80;;;17.50;1.00;;;;;;5107837;28;20467;-78
2023/04/29 12:39:12;;;;;;;3.25;1.70;;;17.50;1.00;;;;;;5081718;28;20036;-78